sensor_id;sensor_type;location;lat;lon;timestamp;temperature;humidity
51579;DHT22;47998;53.242;6.386;2023-05-03T00:01:35;3.10;52.60
51579;DHT22;47998;53.242;6.386;2023-05-03T00:04:02;3.30;99.90
51579;DHT22;47998;53.242;6.386;2023-05-03T00:06:28;3.40;99.90
51579;DHT22;47998;53.242;6.386;2023-05-03T00:08:54;3.40;99.90
51579;DHT22;47998;53.242;6.386;2023-05-03T00:11:20;3.50;99.90
51579;DHT22;47998;53.242;6.386;2023-05-03T00:13:46;3.60;99.90
51579;DHT22;47998;53.242;6.386;2023-05-03T00:16:12;3.60;99.90
51579;DHT22;47998;53.242;6.386;2023-05-03T00:18:38;3.70;99.90
51579;DHT22;47998;53.242;6.386;2023-05-03T00:21:03;3.80;99.90
51579;DHT22;47998;53.242;6.386;2023-05-03T00:23:29;3.90;99.90
51579;DHT22;47998;53.242;6.386;2023-05-03T00:25:57;3.90;99.90
51579;DHT22;47998;53.242;6.386;2023-05-03T00:28:23;4.00;99.90
51579;DHT22;47998;53.242;6.386;2023-05-03T00:30:50;4.10;99.90
51579;DHT22;47998;53.242;6.386;2023-05-03T00:33:15;4.10;99.90
51579;DHT22;47998;53.242;6.386;2023-05-03T00:35:42;4.20;99.90
51579;DHT22;47998;53.242;6.386;2023-05-03T00:38:08;4.20;99.90
51579;DHT22;47998;53.242;6.386;2023-05-03T00:40:33;4.20;99.90
51579;DHT22;47998;53.242;6.386;2023-05-03T00:42:59;4.30;99.90
51579;DHT22;47998;53.242;6.386;2023-05-03T00:45:25;4.30;99.90
51579;DHT22;47998;53.242;6.386;2023-05-03T00:47:51;4.40;99.90
51579;DHT22;47998;53.242;6.386;2023-05-03T00:53:58;4.40;99.90
51579;DHT22;47998;53.242;6.386;2023-05-03T00:56:24;4.40;99.90
51579;DHT22;47998;53.242;6.386;2023-05-03T00:58:51;4.50;99.90
51579;DHT22;47998;53.242;6.386;2023-05-03T01:01:17;4.50;99.90
51579;DHT22;47998;53.242;6.386;2023-05-03T01:03:43;4.50;99.90
51579;DHT22;47998;53.242;6.386;2023-05-03T01:09:21;4.50;99.90
51579;DHT22;47998;53.242;6.386;2023-05-03T01:17:28;4.50;99.90
51579;DHT22;47998;53.242;6.386;2023-05-03T01:20:04;4.50;99.90
51579;DHT22;47998;53.242;6.386;2023-05-03T01:25:05;4.50;99.90
51579;DHT22;47998;53.242;6.386;2023-05-03T01:27:32;4.40;99.40
51579;DHT22;47998;53.242;6.386;2023-05-03T01:29:58;4.50;91.60
51579;DHT22;47998;53.242;6.386;2023-05-03T01:32:31;4.40;95.90
51579;DHT22;47998;53.242;6.386;2023-05-03T01:35:14;4.50;99.90
51579;DHT22;47998;53.242;6.386;2023-05-03T01:37:41;4.60;99.90
51579;DHT22;47998;53.242;6.386;2023-05-03T01:40:08;4.60;99.90
51579;DHT22;47998;53.242;6.386;2023-05-03T01:42:36;4.70;99.90
51579;DHT22;47998;53.242;6.386;2023-05-03T01:45:06;4.80;99.90
51579;DHT22;47998;53.242;6.386;2023-05-03T01:47:32;4.80;99.90
51579;DHT22;47998;53.242;6.386;2023-05-03T01:49:58;4.80;99.90
51579;DHT22;47998;53.242;6.386;2023-05-03T01:52:25;4.90;99.90
51579;DHT22;47998;53.242;6.386;2023-05-03T01:54:51;5.00;99.90
51579;DHT22;47998;53.242;6.386;2023-05-03T01:57:17;5.10;99.90
51579;DHT22;47998;53.242;6.386;2023-05-03T01:59:43;5.10;99.90
51579;DHT22;47998;53.242;6.386;2023-05-03T02:02:08;5.10;99.90
51579;DHT22;47998;53.242;6.386;2023-05-03T02:04:35;5.00;99.90
51579;DHT22;47998;53.242;6.386;2023-05-03T02:07:00;5.10;99.90
51579;DHT22;47998;53.242;6.386;2023-05-03T02:09:26;5.10;99.90
51579;DHT22;47998;53.242;6.386;2023-05-03T02:11:52;5.10;99.90
51579;DHT22;47998;53.242;6.386;2023-05-03T02:14:17;5.20;99.90
51579;DHT22;47998;53.242;6.386;2023-05-03T02:16:43;5.20;99.90
51579;DHT22;47998;53.242;6.386;2023-05-03T02:19:09;5.20;99.90
51579;DHT22;47998;53.242;6.386;2023-05-03T02:21:36;5.30;99.90
51579;DHT22;47998;53.242;6.386;2023-05-03T02:24:02;5.30;99.90
51579;DHT22;47998;53.242;6.386;2023-05-03T02:26:28;5.30;99.90
51579;DHT22;47998;53.242;6.386;2023-05-03T02:28:54;5.40;99.90
51579;DHT22;47998;53.242;6.386;2023-05-03T02:31:21;5.40;99.90
51579;DHT22;47998;53.242;6.386;2023-05-03T02:33:47;5.40;99.90
51579;DHT22;47998;53.242;6.386;2023-05-03T02:36:12;5.30;99.90
51579;DHT22;47998;53.242;6.386;2023-05-03T02:38:38;5.30;99.90
51579;DHT22;47998;53.242;6.386;2023-05-03T02:41:04;5.30;99.90
51579;DHT22;47998;53.242;6.386;2023-05-03T02:43:30;5.30;99.90
51579;DHT22;47998;53.242;6.386;2023-05-03T02:45:55;5.40;99.90
51579;DHT22;47998;53.242;6.386;2023-05-03T02:48:21;5.40;99.90
51579;DHT22;47998;53.242;6.386;2023-05-03T02:50:47;5.50;94.10
51579;DHT22;47998;53.242;6.386;2023-05-03T02:53:13;5.40;74.40
51579;DHT22;47998;53.242;6.386;2023-05-03T02:55:39;5.50;35.80
51579;DHT22;47998;53.242;6.386;2023-05-03T02:58:05;5.50;8.90
51579;DHT22;47998;53.242;6.386;2023-05-03T03:00:32;5.50;1.00
51579;DHT22;47998;53.242;6.386;2023-05-03T03:02:58;5.50;1.00
51579;DHT22;47998;53.242;6.386;2023-05-03T03:05:24;5.40;1.00
51579;DHT22;47998;53.242;6.386;2023-05-03T03:07:49;5.40;1.00
51579;DHT22;47998;53.242;6.386;2023-05-03T03:10:15;5.40;1.00
51579;DHT22;47998;53.242;6.386;2023-05-03T03:12:41;5.40;1.00
51579;DHT22;47998;53.242;6.386;2023-05-03T03:15:08;5.50;1.00
51579;DHT22;47998;53.242;6.386;2023-05-03T03:17:33;5.50;1.00
51579;DHT22;47998;53.242;6.386;2023-05-03T03:20:04;5.50;99.90
51579;DHT22;47998;53.242;6.386;2023-05-03T03:22:31;5.40;99.90
51579;DHT22;47998;53.242;6.386;2023-05-03T03:24:56;5.40;99.90
51579;DHT22;47998;53.242;6.386;2023-05-03T03:27:22;5.40;99.90
51579;DHT22;47998;53.242;6.386;2023-05-03T03:29:48;5.40;99.90
51579;DHT22;47998;53.242;6.386;2023-05-03T03:32:14;5.30;99.90
51579;DHT22;47998;53.242;6.386;2023-05-03T03:34:40;5.30;99.90
51579;DHT22;47998;53.242;6.386;2023-05-03T03:37:06;5.20;99.90
51579;DHT22;47998;53.242;6.386;2023-05-03T03:39:31;5.10;99.90
51579;DHT22;47998;53.242;6.386;2023-05-03T03:41:57;5.10;99.90
51579;DHT22;47998;53.242;6.386;2023-05-03T03:44:23;5.10;99.90
51579;DHT22;47998;53.242;6.386;2023-05-03T03:46:48;5.10;99.90
51579;DHT22;47998;53.242;6.386;2023-05-03T03:49:14;5.10;99.90
51579;DHT22;47998;53.242;6.386;2023-05-03T03:51:40;5.20;99.90
51579;DHT22;47998;53.242;6.386;2023-05-03T03:54:05;5.20;99.90
51579;DHT22;47998;53.242;6.386;2023-05-03T03:56:31;5.20;96.00
51579;DHT22;47998;53.242;6.386;2023-05-03T03:58:57;5.20;58.00
51579;DHT22;47998;53.242;6.386;2023-05-03T04:01:22;5.10;25.90
51579;DHT22;47998;53.242;6.386;2023-05-03T04:03:48;5.10;11.70
51579;DHT22;47998;53.242;6.386;2023-05-03T04:06:14;4.90;1.00
51579;DHT22;47998;53.242;6.386;2023-05-03T04:08:39;4.90;5.00
51579;DHT22;47998;53.242;6.386;2023-05-03T04:11:09;4.80;17.40
51579;DHT22;47998;53.242;6.386;2023-05-03T04:13:36;4.80;34.80
51579;DHT22;47998;53.242;6.386;2023-05-03T04:16:03;4.70;81.40
51579;DHT22;47998;53.242;6.386;2023-05-03T04:18:29;4.70;95.00
51579;DHT22;47998;53.242;6.386;2023-05-03T04:20:54;4.60;99.90
51579;DHT22;47998;53.242;6.386;2023-05-03T04:23:20;4.70;99.90
51579;DHT22;47998;53.242;6.386;2023-05-03T04:25:46;4.70;99.90
51579;DHT22;47998;53.242;6.386;2023-05-03T04:28:13;4.80;99.90
51579;DHT22;47998;53.242;6.386;2023-05-03T04:30:40;5.00;1.00
51579;DHT22;47998;53.242;6.386;2023-05-03T04:33:08;5.30;1.00
51579;DHT22;47998;53.242;6.386;2023-05-03T04:35:34;5.50;1.00
51579;DHT22;47998;53.242;6.386;2023-05-03T04:38:01;5.70;1.00
51579;DHT22;47998;53.242;6.386;2023-05-03T04:40:28;5.70;1.00
51579;DHT22;47998;53.242;6.386;2023-05-03T04:47:48;6.00;1.00
51579;DHT22;47998;53.242;6.386;2023-05-03T04:50:14;5.90;1.00
51579;DHT22;47998;53.242;6.386;2023-05-03T04:52:40;6.00;1.00
51579;DHT22;47998;53.242;6.386;2023-05-03T04:55:06;6.00;1.00
51579;DHT22;47998;53.242;6.386;2023-05-03T04:57:32;6.10;1.00
51579;DHT22;47998;53.242;6.386;2023-05-03T04:59:58;6.10;1.00
51579;DHT22;47998;53.242;6.386;2023-05-03T05:02:24;6.20;1.00
51579;DHT22;47998;53.242;6.386;2023-05-03T05:04:52;6.20;1.00
51579;DHT22;47998;53.242;6.386;2023-05-03T05:07:17;6.30;1.00
51579;DHT22;47998;53.242;6.386;2023-05-03T05:09:43;6.40;1.00
51579;DHT22;47998;53.242;6.386;2023-05-03T05:12:09;6.50;1.00
51579;DHT22;47998;53.242;6.386;2023-05-03T05:14:35;6.50;1.00
51579;DHT22;47998;53.242;6.386;2023-05-03T05:17:00;6.60;1.00
51579;DHT22;47998;53.242;6.386;2023-05-03T05:19:26;6.70;1.00
51579;DHT22;47998;53.242;6.386;2023-05-03T05:21:52;6.80;1.00
51579;DHT22;47998;53.242;6.386;2023-05-03T05:24:18;7.00;1.00
51579;DHT22;47998;53.242;6.386;2023-05-03T05:26:43;7.10;99.90
51579;DHT22;47998;53.242;6.386;2023-05-03T05:29:09;7.20;99.90
51579;DHT22;47998;53.242;6.386;2023-05-03T05:31:35;7.20;99.90
51579;DHT22;47998;53.242;6.386;2023-05-03T05:34:01;7.30;99.90
51579;DHT22;47998;53.242;6.386;2023-05-03T05:36:28;7.30;99.90
51579;DHT22;47998;53.242;6.386;2023-05-03T05:38:55;7.40;1.00
51579;DHT22;47998;53.242;6.386;2023-05-03T05:41:20;7.40;99.90
51579;DHT22;47998;53.242;6.386;2023-05-03T05:43:46;7.40;99.90
51579;DHT22;47998;53.242;6.386;2023-05-03T05:46:12;7.50;99.90
51579;DHT22;47998;53.242;6.386;2023-05-03T05:48:39;7.60;99.90
51579;DHT22;47998;53.242;6.386;2023-05-03T05:51:06;7.70;99.90
51579;DHT22;47998;53.242;6.386;2023-05-03T05:53:31;7.80;99.90
51579;DHT22;47998;53.242;6.386;2023-05-03T05:55:57;7.90;99.90
51579;DHT22;47998;53.242;6.386;2023-05-03T05:58:23;8.00;99.90
51579;DHT22;47998;53.242;6.386;2023-05-03T06:00:49;7.90;99.90
51579;DHT22;47998;53.242;6.386;2023-05-03T06:03:15;8.00;32.40
51579;DHT22;47998;53.242;6.386;2023-05-03T06:05:41;8.00;1.00
51579;DHT22;47998;53.242;6.386;2023-05-03T06:08:09;7.90;1.00
51579;DHT22;47998;53.242;6.386;2023-05-03T06:10:34;8.00;1.00
51579;DHT22;47998;53.242;6.386;2023-05-03T06:13:00;8.10;1.00
51579;DHT22;47998;53.242;6.386;2023-05-03T06:15:27;8.10;99.90
51579;DHT22;47998;53.242;6.386;2023-05-03T06:17:52;8.20;99.90
51579;DHT22;47998;53.242;6.386;2023-05-03T06:20:18;8.20;99.90
51579;DHT22;47998;53.242;6.386;2023-05-03T06:22:44;8.40;99.90
51579;DHT22;47998;53.242;6.386;2023-05-03T06:25:10;8.40;99.90
51579;DHT22;47998;53.242;6.386;2023-05-03T06:27:37;8.40;99.90
51579;DHT22;47998;53.242;6.386;2023-05-03T06:30:03;8.50;99.90
51579;DHT22;47998;53.242;6.386;2023-05-03T06:32:30;8.70;99.90
51579;DHT22;47998;53.242;6.386;2023-05-03T06:34:56;8.90;99.90
51579;DHT22;47998;53.242;6.386;2023-05-03T06:37:24;9.00;99.90
51579;DHT22;47998;53.242;6.386;2023-05-03T06:39:50;9.20;99.90
51579;DHT22;47998;53.242;6.386;2023-05-03T06:42:16;9.30;68.80
51579;DHT22;47998;53.242;6.386;2023-05-03T06:44:42;9.50;4.80
51579;DHT22;47998;53.242;6.386;2023-05-03T06:47:08;9.60;2.90
51579;DHT22;47998;53.242;6.386;2023-05-03T06:49:33;9.80;1.00
51579;DHT22;47998;53.242;6.386;2023-05-03T06:51:59;9.90;99.90
51579;DHT22;47998;53.242;6.386;2023-05-03T06:54:25;10.10;1.00
51579;DHT22;47998;53.242;6.386;2023-05-03T06:56:51;10.10;44.70
51579;DHT22;47998;53.242;6.386;2023-05-03T06:59:16;10.30;6.40
51579;DHT22;47998;53.242;6.386;2023-05-03T07:01:42;10.40;1.00
51579;DHT22;47998;53.242;6.386;2023-05-03T07:04:08;10.40;1.00
51579;DHT22;47998;53.242;6.386;2023-05-03T07:06:34;10.50;1.00
51579;DHT22;47998;53.242;6.386;2023-05-03T07:08:59;10.50;99.90
51579;DHT22;47998;53.242;6.386;2023-05-03T07:11:25;10.70;1.00
51579;DHT22;47998;53.242;6.386;2023-05-03T07:13:52;10.70;99.90
51579;DHT22;47998;53.242;6.386;2023-05-03T07:16:18;10.80;99.90
51579;DHT22;47998;53.242;6.386;2023-05-03T07:18:44;10.80;1.00
51579;DHT22;47998;53.242;6.386;2023-05-03T07:21:11;10.90;97.60
51579;DHT22;47998;53.242;6.386;2023-05-03T07:23:38;11.00;1.00
51579;DHT22;47998;53.242;6.386;2023-05-03T07:26:03;11.00;1.00
51579;DHT22;47998;53.242;6.386;2023-05-03T07:28:29;11.10;1.00
51579;DHT22;47998;53.242;6.386;2023-05-03T07:30:55;11.20;1.00
51579;DHT22;47998;53.242;6.386;2023-05-03T07:33:21;11.30;99.90
51579;DHT22;47998;53.242;6.386;2023-05-03T07:35:47;11.40;99.90
51579;DHT22;47998;53.242;6.386;2023-05-03T07:38:13;11.30;99.90
51579;DHT22;47998;53.242;6.386;2023-05-03T07:40:39;11.30;99.90
51579;DHT22;47998;53.242;6.386;2023-05-03T07:43:06;11.40;99.90
51579;DHT22;47998;53.242;6.386;2023-05-03T07:45:37;11.50;99.90
51579;DHT22;47998;53.242;6.386;2023-05-03T07:48:04;11.60;4.50
51579;DHT22;47998;53.242;6.386;2023-05-03T07:50:30;11.60;1.00
51579;DHT22;47998;53.242;6.386;2023-05-03T07:52:56;11.70;1.00
51579;DHT22;47998;53.242;6.386;2023-05-03T07:55:23;11.70;1.00
51579;DHT22;47998;53.242;6.386;2023-05-03T07:57:49;11.60;99.90
51579;DHT22;47998;53.242;6.386;2023-05-03T08:00:16;11.60;99.90
51579;DHT22;47998;53.242;6.386;2023-05-03T08:02:42;11.60;1.00
51579;DHT22;47998;53.242;6.386;2023-05-03T08:05:09;11.60;1.00
51579;DHT22;47998;53.242;6.386;2023-05-03T08:07:38;11.60;99.90
51579;DHT22;47998;53.242;6.386;2023-05-03T08:10:04;11.40;99.90
51579;DHT22;47998;53.242;6.386;2023-05-03T08:12:30;11.30;99.90
51579;DHT22;47998;53.242;6.386;2023-05-03T08:14:56;11.30;99.90
51579;DHT22;47998;53.242;6.386;2023-05-03T08:17:22;11.40;1.00
51579;DHT22;47998;53.242;6.386;2023-05-03T08:19:48;11.50;1.00
51579;DHT22;47998;53.242;6.386;2023-05-03T08:22:14;11.60;99.90
51579;DHT22;47998;53.242;6.386;2023-05-03T08:24:41;11.50;99.90
51579;DHT22;47998;53.242;6.386;2023-05-03T08:27:07;11.30;99.90
51579;DHT22;47998;53.242;6.386;2023-05-03T08:29:35;11.00;99.90
51579;DHT22;47998;53.242;6.386;2023-05-03T08:32:02;10.90;99.90
51579;DHT22;47998;53.242;6.386;2023-05-03T08:34:29;10.90;99.90
51579;DHT22;47998;53.242;6.386;2023-05-03T08:36:55;11.00;99.90
51579;DHT22;47998;53.242;6.386;2023-05-03T08:39:22;11.10;99.90
51579;DHT22;47998;53.242;6.386;2023-05-03T08:41:49;11.00;99.90
51579;DHT22;47998;53.242;6.386;2023-05-03T08:44:23;11.00;99.90
51579;DHT22;47998;53.242;6.386;2023-05-03T08:46:53;11.10;99.90
51579;DHT22;47998;53.242;6.386;2023-05-03T08:49:19;11.10;99.90
51579;DHT22;47998;53.242;6.386;2023-05-03T08:51:46;11.00;99.90
51579;DHT22;47998;53.242;6.386;2023-05-03T08:54:14;11.00;99.90
51579;DHT22;47998;53.242;6.386;2023-05-03T08:56:42;11.00;99.90
51579;DHT22;47998;53.242;6.386;2023-05-03T08:59:11;11.10;99.90
51579;DHT22;47998;53.242;6.386;2023-05-03T09:01:38;11.20;99.90
51579;DHT22;47998;53.242;6.386;2023-05-03T09:04:05;11.20;99.90
51579;DHT22;47998;53.242;6.386;2023-05-03T09:06:31;11.20;99.90
51579;DHT22;47998;53.242;6.386;2023-05-03T09:09:01;11.30;99.90
51579;DHT22;47998;53.242;6.386;2023-05-03T09:11:30;11.30;99.90
51579;DHT22;47998;53.242;6.386;2023-05-03T09:14:16;11.20;99.90
51579;DHT22;47998;53.242;6.386;2023-05-03T09:16:43;11.20;99.90
51579;DHT22;47998;53.242;6.386;2023-05-03T09:19:11;11.20;99.90
51579;DHT22;47998;53.242;6.386;2023-05-03T09:21:41;11.20;99.90
51579;DHT22;47998;53.242;6.386;2023-05-03T09:24:19;11.20;99.90
51579;DHT22;47998;53.242;6.386;2023-05-03T09:26:47;11.30;99.90
51579;DHT22;47998;53.242;6.386;2023-05-03T09:29:32;11.40;99.90
51579;DHT22;47998;53.242;6.386;2023-05-03T09:32:04;11.80;99.90
51579;DHT22;47998;53.242;6.386;2023-05-03T09:34:31;12.00;99.90
51579;DHT22;47998;53.242;6.386;2023-05-03T09:36:57;11.90;99.90
51579;DHT22;47998;53.242;6.386;2023-05-03T09:39:23;11.70;56.80
51579;DHT22;47998;53.242;6.386;2023-05-03T09:41:48;11.60;99.90
51579;DHT22;47998;53.242;6.386;2023-05-03T09:44:16;11.50;23.50
51579;DHT22;47998;53.242;6.386;2023-05-03T09:47:04;11.40;1.00
51579;DHT22;47998;53.242;6.386;2023-05-03T09:49:33;11.40;25.10
51579;DHT22;47998;53.242;6.386;2023-05-03T09:52:00;11.60;99.90
51579;DHT22;47998;53.242;6.386;2023-05-03T09:54:27;11.80;99.90
51579;DHT22;47998;53.242;6.386;2023-05-03T09:56:56;12.10;99.90
51579;DHT22;47998;53.242;6.386;2023-05-03T09:59:22;12.30;99.90
51579;DHT22;47998;53.242;6.386;2023-05-03T10:01:49;12.70;99.90
51579;DHT22;47998;53.242;6.386;2023-05-03T10:04:17;12.80;1.00
51579;DHT22;47998;53.242;6.386;2023-05-03T10:06:47;12.50;1.00
51579;DHT22;47998;53.242;6.386;2023-05-03T10:09:35;12.50;1.00
51579;DHT22;47998;53.242;6.386;2023-05-03T10:12:06;12.40;75.30
51579;DHT22;47998;53.242;6.386;2023-05-03T10:14:33;12.70;25.10
51579;DHT22;47998;53.242;6.386;2023-05-03T10:17:01;12.80;1.00
51579;DHT22;47998;53.242;6.386;2023-05-03T10:22:12;13.10;1.00
51579;DHT22;47998;53.242;6.386;2023-05-03T10:27:40;13.20;1.00
51579;DHT22;47998;53.242;6.386;2023-05-03T10:30:08;13.30;99.90
51579;DHT22;47998;53.242;6.386;2023-05-03T10:32:51;13.20;99.90
51579;DHT22;47998;53.242;6.386;2023-05-03T10:35:17;13.00;99.90
51579;DHT22;47998;53.242;6.386;2023-05-03T10:37:44;12.90;99.90
51579;DHT22;47998;53.242;6.386;2023-05-03T10:40:13;12.90;99.90
51579;DHT22;47998;53.242;6.386;2023-05-03T10:42:58;12.80;99.90
51579;DHT22;47998;53.242;6.386;2023-05-03T10:45:27;12.70;99.90
51579;DHT22;47998;53.242;6.386;2023-05-03T10:50:40;12.50;99.90
51579;DHT22;47998;53.242;6.386;2023-05-03T10:53:06;12.60;99.90
51579;DHT22;47998;53.242;6.386;2023-05-03T10:55:32;12.80;99.90
51579;DHT22;47998;53.242;6.386;2023-05-03T10:57:59;13.00;99.90
51579;DHT22;47998;53.242;6.386;2023-05-03T11:00:37;13.10;99.90
51579;DHT22;47998;53.242;6.386;2023-05-03T11:03:23;13.00;99.90
51579;DHT22;47998;53.242;6.386;2023-05-03T11:05:54;12.70;99.90
51579;DHT22;47998;53.242;6.386;2023-05-03T11:08:23;13.10;99.90
51579;DHT22;47998;53.242;6.386;2023-05-03T11:10:58;13.40;99.90
51579;DHT22;47998;53.242;6.386;2023-05-03T11:13:25;13.80;99.90
51579;DHT22;47998;53.242;6.386;2023-05-03T11:15:53;13.70;99.90
51579;DHT22;47998;53.242;6.386;2023-05-03T11:18:19;13.70;99.90
51579;DHT22;47998;53.242;6.386;2023-05-03T11:20:45;13.80;99.90
51579;DHT22;47998;53.242;6.386;2023-05-03T11:23:11;13.40;99.90
51579;DHT22;47998;53.242;6.386;2023-05-03T11:25:37;13.70;99.90
51579;DHT22;47998;53.242;6.386;2023-05-03T11:28:04;13.90;99.90
51579;DHT22;47998;53.242;6.386;2023-05-03T11:30:32;13.90;99.90
51579;DHT22;47998;53.242;6.386;2023-05-03T11:32:59;14.10;99.90
51579;DHT22;47998;53.242;6.386;2023-05-03T11:35:28;14.20;99.90
51579;DHT22;47998;53.242;6.386;2023-05-03T11:37:54;14.00;99.90
51579;DHT22;47998;53.242;6.386;2023-05-03T11:40:21;14.10;99.90
51579;DHT22;47998;53.242;6.386;2023-05-03T11:42:57;13.80;99.90
51579;DHT22;47998;53.242;6.386;2023-05-03T11:45:30;14.10;99.90
51579;DHT22;47998;53.242;6.386;2023-05-03T11:47:57;13.90;99.90
51579;DHT22;47998;53.242;6.386;2023-05-03T11:50:49;13.80;99.90
51579;DHT22;47998;53.242;6.386;2023-05-03T11:53:16;13.80;99.90
51579;DHT22;47998;53.242;6.386;2023-05-03T11:55:44;13.80;99.90
51579;DHT22;47998;53.242;6.386;2023-05-03T11:58:18;14.10;99.90
51579;DHT22;47998;53.242;6.386;2023-05-03T12:00:46;14.60;99.90
51579;DHT22;47998;53.242;6.386;2023-05-03T12:03:23;14.70;99.90
51579;DHT22;47998;53.242;6.386;2023-05-03T12:05:51;14.80;99.90
51579;DHT22;47998;53.242;6.386;2023-05-03T12:08:20;14.90;99.90
51579;DHT22;47998;53.242;6.386;2023-05-03T12:10:49;14.80;99.90
51579;DHT22;47998;53.242;6.386;2023-05-03T12:13:32;15.00;99.90
51579;DHT22;47998;53.242;6.386;2023-05-03T12:16:00;14.90;99.90
51579;DHT22;47998;53.242;6.386;2023-05-03T12:18:27;14.80;99.90
51579;DHT22;47998;53.242;6.386;2023-05-03T12:20:56;14.80;99.90
51579;DHT22;47998;53.242;6.386;2023-05-03T12:23:23;15.00;99.90
51579;DHT22;47998;53.242;6.386;2023-05-03T12:25:49;15.30;99.90
51579;DHT22;47998;53.242;6.386;2023-05-03T12:28:18;15.40;99.90
51579;DHT22;47998;53.242;6.386;2023-05-03T12:30:44;15.40;99.90
51579;DHT22;47998;53.242;6.386;2023-05-03T12:33:10;15.00;99.90
51579;DHT22;47998;53.242;6.386;2023-05-03T12:35:36;14.70;99.90
51579;DHT22;47998;53.242;6.386;2023-05-03T12:38:02;14.80;99.90
51579;DHT22;47998;53.242;6.386;2023-05-03T12:40:28;14.80;99.90
51579;DHT22;47998;53.242;6.386;2023-05-03T12:42:54;15.10;99.90
51579;DHT22;47998;53.242;6.386;2023-05-03T12:45:22;15.20;99.90
51579;DHT22;47998;53.242;6.386;2023-05-03T12:47:48;15.00;93.90
51579;DHT22;47998;53.242;6.386;2023-05-03T12:50:14;15.00;99.90
51579;DHT22;47998;53.242;6.386;2023-05-03T12:52:39;15.20;99.90
51579;DHT22;47998;53.242;6.386;2023-05-03T12:55:06;15.70;99.90
51579;DHT22;47998;53.242;6.386;2023-05-03T12:57:32;16.80;90.50
51579;DHT22;47998;53.242;6.386;2023-05-03T12:59:58;17.20;45.00
51579;DHT22;47998;53.242;6.386;2023-05-03T13:02:24;16.70;5.70
51579;DHT22;47998;53.242;6.386;2023-05-03T13:04:50;16.10;1.00
51579;DHT22;47998;53.242;6.386;2023-05-03T13:07:20;15.80;1.00
51579;DHT22;47998;53.242;6.386;2023-05-03T13:09:46;15.40;1.00
51579;DHT22;47998;53.242;6.386;2023-05-03T13:12:13;15.50;1.00
51579;DHT22;47998;53.242;6.386;2023-05-03T13:14:40;16.20;16.60
51579;DHT22;47998;53.242;6.386;2023-05-03T13:17:06;16.40;1.00
51579;DHT22;47998;53.242;6.386;2023-05-03T13:19:32;16.70;3.10
51579;DHT22;47998;53.242;6.386;2023-05-03T13:21:58;16.50;1.00
51579;DHT22;47998;53.242;6.386;2023-05-03T13:24:23;16.50;3.70
51579;DHT22;47998;53.242;6.386;2023-05-03T13:26:49;17.30;54.00
51579;DHT22;47998;53.242;6.386;2023-05-03T13:29:15;18.00;27.80
51579;DHT22;47998;53.242;6.386;2023-05-03T13:31:41;18.50;1.00
51579;DHT22;47998;53.242;6.386;2023-05-03T13:34:06;17.80;1.00
51579;DHT22;47998;53.242;6.386;2023-05-03T13:36:32;16.90;1.00
51579;DHT22;47998;53.242;6.386;2023-05-03T13:38:58;16.40;1.00
51579;DHT22;47998;53.242;6.386;2023-05-03T13:41:26;16.00;1.00
51579;DHT22;47998;53.242;6.386;2023-05-03T13:43:51;15.80;1.00
51579;DHT22;47998;53.242;6.386;2023-05-03T13:46:17;15.60;1.00
51579;DHT22;47998;53.242;6.386;2023-05-03T13:48:43;15.40;1.00
51579;DHT22;47998;53.242;6.386;2023-05-03T13:51:10;15.00;1.00
51579;DHT22;47998;53.242;6.386;2023-05-03T13:53:37;15.00;1.00
51579;DHT22;47998;53.242;6.386;2023-05-03T13:56:03;14.90;1.00
51579;DHT22;47998;53.242;6.386;2023-05-03T13:58:30;14.70;1.00
51579;DHT22;47998;53.242;6.386;2023-05-03T14:00:55;14.80;1.00
51579;DHT22;47998;53.242;6.386;2023-05-03T14:03:21;15.30;1.00
51579;DHT22;47998;53.242;6.386;2023-05-03T14:05:47;15.80;1.00
51579;DHT22;47998;53.242;6.386;2023-05-03T14:08:14;16.40;1.00
51579;DHT22;47998;53.242;6.386;2023-05-03T14:10:42;16.60;1.00
51579;DHT22;47998;53.242;6.386;2023-05-03T14:13:08;17.40;1.00
51579;DHT22;47998;53.242;6.386;2023-05-03T14:15:38;17.80;1.00
51579;DHT22;47998;53.242;6.386;2023-05-03T14:18:04;17.70;1.00
51579;DHT22;47998;53.242;6.386;2023-05-03T14:20:31;16.90;1.00
51579;DHT22;47998;53.242;6.386;2023-05-03T14:22:57;16.50;1.00
51579;DHT22;47998;53.242;6.386;2023-05-03T14:25:22;15.90;1.00
51579;DHT22;47998;53.242;6.386;2023-05-03T14:27:50;15.70;1.00
51579;DHT22;47998;53.242;6.386;2023-05-03T14:30:16;15.80;1.00
51579;DHT22;47998;53.242;6.386;2023-05-03T14:32:41;15.80;1.00
51579;DHT22;47998;53.242;6.386;2023-05-03T14:35:07;15.80;1.00
51579;DHT22;47998;53.242;6.386;2023-05-03T14:37:33;15.80;1.00
51579;DHT22;47998;53.242;6.386;2023-05-03T14:39:59;16.00;1.00
51579;DHT22;47998;53.242;6.386;2023-05-03T14:42:28;15.50;1.00
51579;DHT22;47998;53.242;6.386;2023-05-03T14:44:54;15.00;1.00
51579;DHT22;47998;53.242;6.386;2023-05-03T14:47:20;14.90;1.00
51579;DHT22;47998;53.242;6.386;2023-05-03T14:49:46;14.70;1.00
51579;DHT22;47998;53.242;6.386;2023-05-03T14:52:12;15.10;1.00
51579;DHT22;47998;53.242;6.386;2023-05-03T14:54:37;15.60;1.00
51579;DHT22;47998;53.242;6.386;2023-05-03T14:57:03;16.00;1.00
51579;DHT22;47998;53.242;6.386;2023-05-03T14:59:32;16.30;1.00
51579;DHT22;47998;53.242;6.386;2023-05-03T15:01:59;16.80;1.00
51579;DHT22;47998;53.242;6.386;2023-05-03T15:04:25;16.90;1.00
51579;DHT22;47998;53.242;6.386;2023-05-03T15:06:51;16.70;1.00
51579;DHT22;47998;53.242;6.386;2023-05-03T15:09:18;16.50;1.00
51579;DHT22;47998;53.242;6.386;2023-05-03T15:11:45;16.30;1.00
51579;DHT22;47998;53.242;6.386;2023-05-03T15:14:11;16.10;1.00
51579;DHT22;47998;53.242;6.386;2023-05-03T15:16:37;15.80;1.00
51579;DHT22;47998;53.242;6.386;2023-05-03T15:19:03;15.80;1.00
51579;DHT22;47998;53.242;6.386;2023-05-03T15:21:29;16.10;1.00
51579;DHT22;47998;53.242;6.386;2023-05-03T15:23:55;16.20;1.00
51579;DHT22;47998;53.242;6.386;2023-05-03T15:26:21;15.60;1.00
51579;DHT22;47998;53.242;6.386;2023-05-03T15:28:47;15.40;1.00
51579;DHT22;47998;53.242;6.386;2023-05-03T15:31:13;15.20;1.00
51579;DHT22;47998;53.242;6.386;2023-05-03T15:33:41;15.40;1.00
51579;DHT22;47998;53.242;6.386;2023-05-03T15:36:08;15.60;1.00
51579;DHT22;47998;53.242;6.386;2023-05-03T15:38:35;15.20;1.00
51579;DHT22;47998;53.242;6.386;2023-05-03T15:41:00;15.40;1.00
51579;DHT22;47998;53.242;6.386;2023-05-03T15:43:26;15.40;1.00
51579;DHT22;47998;53.242;6.386;2023-05-03T15:45:52;15.60;1.00
51579;DHT22;47998;53.242;6.386;2023-05-03T15:48:17;15.90;1.00
51579;DHT22;47998;53.242;6.386;2023-05-03T15:50:43;16.10;1.00
51579;DHT22;47998;53.242;6.386;2023-05-03T15:53:09;16.10;1.00
51579;DHT22;47998;53.242;6.386;2023-05-03T15:55:35;15.80;1.00
51579;DHT22;47998;53.242;6.386;2023-05-03T15:58:01;15.40;1.00
51579;DHT22;47998;53.242;6.386;2023-05-03T16:00:26;15.00;1.00
51579;DHT22;47998;53.242;6.386;2023-05-03T16:02:52;14.60;1.00
51579;DHT22;47998;53.242;6.386;2023-05-03T16:05:18;14.50;1.00
51579;DHT22;47998;53.242;6.386;2023-05-03T16:07:44;14.60;1.00
51579;DHT22;47998;53.242;6.386;2023-05-03T16:10:11;14.50;1.00